sensor_id;sensor_type;location;lat;lon;timestamp;pressure;altitude;pressure_sealevel;temperature;humidity
77662;BME280;67292;52.136;5.424;2023-03-14T00:01:26;99024.31;;;10.18;98.88
77662;BME280;67292;52.136;5.424;2023-03-14T00:03:52;99028.09;;;10.14;99.24
77662;BME280;67292;52.136;5.424;2023-03-14T00:06:19;99042.50;;;10.10;99.45
77662;BME280;67292;52.136;5.424;2023-03-14T00:08:46;99032.91;;;10.08;100.00
77662;BME280;67292;52.136;5.424;2023-03-14T00:11:17;99033.97;;;10.05;99.48
77662;BME280;67292;52.136;5.424;2023-03-14T00:13:48;99039.56;;;10.01;100.00
77662;BME280;67292;52.136;5.424;2023-03-14T00:16:15;99034.06;;;10.04;99.82
77662;BME280;67292;52.136;5.424;2023-03-14T00:18:42;99026.28;;;10.01;99.71
77662;BME280;67292;52.136;5.424;2023-03-14T00:21:10;99026.28;;;10.01;99.50
77662;BME280;67292;52.136;5.424;2023-03-14T00:23:39;99026.28;;;10.01;99.71
77662;BME280;67292;52.136;5.424;2023-03-14T00:26:09;99019.25;;;10.00;100.00
77662;BME280;67292;52.136;5.424;2023-03-14T00:28:36;99026.28;;;10.01;99.55
77662;BME280;67292;52.136;5.424;2023-03-14T00:31:04;99018.31;;;10.01;99.42
77662;BME280;67292;52.136;5.424;2023-03-14T00:33:35;99027.22;;;10.00;99.54
77662;BME280;67292;52.136;5.424;2023-03-14T00:36:13;99022.84;;;9.99;99.67
77662;BME280;67292;52.136;5.424;2023-03-14T00:38:42;99029.03;;;9.99;99.58
77662;BME280;67292;52.136;5.424;2023-03-14T00:41:12;99040.69;;;9.97;98.63
77662;BME280;67292;52.136;5.424;2023-03-14T00:43:39;99038.03;;;9.97;98.66
77662;BME280;67292;52.136;5.424;2023-03-14T00:46:07;99042.69;;;9.93;98.81
77662;BME280;67292;52.136;5.424;2023-03-14T00:48:34;99038.22;;;9.94;99.14
77662;BME280;67292;52.136;5.424;2023-03-14T00:51:05;99035.56;;;9.94;99.14
77662;BME280;67292;52.136;5.424;2023-03-14T00:53:35;99034.72;;;9.93;98.38
77662;BME280;67292;52.136;5.424;2023-03-14T00:56:04;99033.94;;;9.91;99.29
77662;BME280;67292;52.136;5.424;2023-03-14T00:58:31;99037.47;;;9.92;99.20
77662;BME280;67292;52.136;5.424;2023-03-14T01:00:58;99028.72;;;9.89;98.42
77662;BME280;67292;52.136;5.424;2023-03-14T01:03:25;99035.00;;;9.88;99.21
77662;BME280;67292;52.136;5.424;2023-03-14T01:05:51;99044.75;;;9.88;98.83
77662;BME280;67292;52.136;5.424;2023-03-14T01:08:18;99047.50;;;9.86;99.14
77662;BME280;67292;52.136;5.424;2023-03-14T01:10:44;99052.63;;;9.89;98.59
77662;BME280;67292;52.136;5.424;2023-03-14T01:13:11;99054.63;;;9.86;98.52
77662;BME280;67292;52.136;5.424;2023-03-14T01:15:38;99050.38;;;9.83;99.17
77662;BME280;67292;52.136;5.424;2023-03-14T01:18:04;99048.75;;;9.81;99.04
77662;BME280;67292;52.136;5.424;2023-03-14T01:20:31;99068.19;;;9.81;99.45
77662;BME280;67292;52.136;5.424;2023-03-14T01:22:58;99058.78;;;9.76;98.78
77662;BME280;67292;52.136;5.424;2023-03-14T01:25:24;99061.50;;;9.74;99.43
77662;BME280;67292;52.136;5.424;2023-03-14T01:27:51;99073.94;;;9.74;99.29
77662;BME280;67292;52.136;5.424;2023-03-14T01:30:17;99072.50;;;9.68;100.00
77662;BME280;67292;52.136;5.424;2023-03-14T01:32:44;99075.25;;;9.67;100.00
77662;BME280;67292;52.136;5.424;2023-03-14T01:35:10;99061.19;;;9.65;100.00
77662;BME280;67292;52.136;5.424;2023-03-14T01:37:37;99063.94;;;9.63;100.00
77662;BME280;67292;52.136;5.424;2023-03-14T01:40:04;99056.97;;;9.62;100.00
77662;BME280;67292;52.136;5.424;2023-03-14T01:42:32;99052.66;;;9.60;100.00
77662;BME280;67292;52.136;5.424;2023-03-14T01:45:01;99062.44;;;9.59;100.00
77662;BME280;67292;52.136;5.424;2023-03-14T01:47:28;99064.31;;;9.57;100.00
77662;BME280;67292;52.136;5.424;2023-03-14T01:50:01;99052.00;;;9.56;100.00
77662;BME280;67292;52.136;5.424;2023-03-14T01:52:36;99044.97;;;9.55;100.00
77662;BME280;67292;52.136;5.424;2023-03-14T01:55:19;99037.16;;;9.52;100.00
77662;BME280;67292;52.136;5.424;2023-03-14T01:57:52;99031.97;;;9.50;100.00
77662;BME280;67292;52.136;5.424;2023-03-14T02:00:22;99029.31;;;9.50;100.00
77662;BME280;67292;52.136;5.424;2023-03-14T02:02:58;99016.22;;;9.47;100.00
77662;BME280;67292;52.136;5.424;2023-03-14T02:05:31;99036.69;;;9.45;100.00
77662;BME280;67292;52.136;5.424;2023-03-14T02:08:01;99031.47;;;9.44;100.00
77662;BME280;67292;52.136;5.424;2023-03-14T02:10:40;99032.50;;;9.41;100.00
77662;BME280;67292;52.136;5.424;2023-03-14T02:13:08;99026.16;;;9.44;100.00
77662;BME280;67292;52.136;5.424;2023-03-14T02:15:35;99037.72;;;9.43;100.00
77662;BME280;67292;52.136;5.424;2023-03-14T02:18:04;99027.09;;;9.43;100.00
77662;BME280;67292;52.136;5.424;2023-03-14T02:20:34;99023.59;;;9.42;100.00
77662;BME280;67292;52.136;5.424;2023-03-14T02:23:05;99024.44;;;9.43;100.00
77662;BME280;67292;52.136;5.424;2023-03-14T02:25:58;99025.59;;;9.39;100.00
77662;BME280;67292;52.136;5.424;2023-03-14T02:28:25;99016.47;;;9.43;100.00
77662;BME280;67292;52.136;5.424;2023-03-14T02:30:52;99006.06;;;9.40;100.00
77662;BME280;67292;52.136;5.424;2023-03-14T02:33:20;99018.41;;;9.41;100.00
77662;BME280;67292;52.136;5.424;2023-03-14T02:35:56;99012.31;;;9.39;100.00
77662;BME280;67292;52.136;5.424;2023-03-14T02:39:19;99006.25;;;9.37;100.00
77662;BME280;67292;52.136;5.424;2023-03-14T02:41:24;99019.44;;;9.38;100.00
77662;BME280;67292;52.136;5.424;2023-03-14T02:43:51;99011.47;;;9.38;100.00
77662;BME280;67292;52.136;5.424;2023-03-14T02:46:20;99009.75;;;9.37;100.00
77662;BME280;67292;52.136;5.424;2023-03-14T02:48:53;99006.16;;;9.38;100.00
77662;BME280;67292;52.136;5.424;2023-03-14T02:51:23;98996.41;;;9.39;100.00
77662;BME280;67292;52.136;5.424;2023-03-14T02:53:50;99000.00;;;9.38;100.00
77662;BME280;67292;52.136;5.424;2023-03-14T02:56:17;98994.69;;;9.38;100.00
77662;BME280;67292;52.136;5.424;2023-03-14T02:58:43;98993.91;;;9.36;100.00
77662;BME280;67292;52.136;5.424;2023-03-14T03:01:10;98991.94;;;9.39;100.00
77662;BME280;67292;52.136;5.424;2023-03-14T03:03:36;98994.69;;;9.38;100.00
77662;BME280;67292;52.136;5.424;2023-03-14T03:06:03;98989.38;;;9.38;100.00
77662;BME280;67292;52.136;5.424;2023-03-14T03:08:31;98989.38;;;9.38;100.00
77662;BME280;67292;52.136;5.424;2023-03-14T03:10:58;98989.47;;;9.36;100.00
77662;BME280;67292;52.136;5.424;2023-03-14T03:13:25;98985.94;;;9.36;100.00
77662;BME280;67292;52.136;5.424;2023-03-14T03:15:52;98977.03;;;9.37;100.00
77662;BME280;67292;52.136;5.424;2023-03-14T03:18:19;98995.53;;;9.38;100.00
77662;BME280;67292;52.136;5.424;2023-03-14T03:20:45;98983.28;;;9.36;100.00
77662;BME280;67292;52.136;5.424;2023-03-14T03:23:13;98986.81;;;9.36;100.00
77662;BME280;67292;52.136;5.424;2023-03-14T03:25:39;98976.19;;;9.36;100.00
77662;BME280;67292;52.136;5.424;2023-03-14T03:28:06;98976.19;;;9.36;100.00
77662;BME280;67292;52.136;5.424;2023-03-14T03:30:41;98983.28;;;9.36;100.00
77662;BME280;67292;52.136;5.424;2023-03-14T03:33:09;98972.59;;;9.37;100.00
77662;BME280;67292;52.136;5.424;2023-03-14T03:35:42;98970.97;;;9.35;100.00
77662;BME280;67292;52.136;5.424;2023-03-14T03:38:10;98972.84;;;9.33;100.00
77662;BME280;67292;52.136;5.424;2023-03-14T03:40:38;98971.91;;;9.34;100.00
77662;BME280;67292;52.136;5.424;2023-03-14T03:43:04;98963.09;;;9.33;100.00
77662;BME280;67292;52.136;5.424;2023-03-14T03:45:31;98955.97;;;9.34;100.00
77662;BME280;67292;52.136;5.424;2023-03-14T03:47:57;98952.47;;;9.33;100.00
77662;BME280;67292;52.136;5.424;2023-03-14T03:50:24;98957.88;;;9.32;100.00
77662;BME280;67292;52.136;5.424;2023-03-14T03:52:50;98951.63;;;9.33;100.00
77662;BME280;67292;52.136;5.424;2023-03-14T03:55:17;98958.72;;;9.32;100.00
77662;BME280;67292;52.136;5.424;2023-03-14T03:57:44;98956.94;;;9.33;100.00
77662;BME280;67292;52.136;5.424;2023-03-14T04:00:11;98956.16;;;9.31;100.00
77662;BME280;67292;52.136;5.424;2023-03-14T04:02:38;98956.94;;;9.33;100.00
77662;BME280;67292;52.136;5.424;2023-03-14T04:05:05;98954.19;;;9.34;100.00
77662;BME280;67292;52.136;5.424;2023-03-14T04:07:33;98959.41;;;9.36;100.00
77662;BME280;67292;52.136;5.424;2023-03-14T04:09:59;98963.69;;;9.38;100.00
77662;BME280;67292;52.136;5.424;2023-03-14T04:12:26;98961.97;;;9.37;100.00
77662;BME280;67292;52.136;5.424;2023-03-14T04:14:52;98961.97;;;9.37;100.00
77662;BME280;67292;52.136;5.424;2023-03-14T04:17:19;98962.75;;;9.39;100.00
77662;BME280;67292;52.136;5.424;2023-03-14T04:19:47;98969.84;;;9.39;100.00
77662;BME280;67292;52.136;5.424;2023-03-14T04:22:17;98967.09;;;9.40;100.00
77662;BME280;67292;52.136;5.424;2023-03-14T04:24:43;98957.22;;;9.42;100.00
77662;BME280;67292;52.136;5.424;2023-03-14T04:27:10;98970.41;;;9.44;100.00
77662;BME280;67292;52.136;5.424;2023-03-14T04:29:36;98962.38;;;9.45;100.00
77662;BME280;67292;52.136;5.424;2023-03-14T04:32:03;98963.22;;;9.46;100.00
77662;BME280;67292;52.136;5.424;2023-03-14T04:34:29;98969.13;;;9.51;100.00
77662;BME280;67292;52.136;5.424;2023-03-14T04:36:56;98973.75;;;9.47;100.00
77662;BME280;67292;52.136;5.424;2023-03-14T04:39:23;98963.91;;;9.49;100.00
77662;BME280;67292;52.136;5.424;2023-03-14T04:41:49;98956.69;;;9.51;100.00
77662;BME280;67292;52.136;5.424;2023-03-14T04:44:16;98950.53;;;9.51;100.00
77662;BME280;67292;52.136;5.424;2023-03-14T04:46:42;98948.75;;;9.51;100.00
77662;BME280;67292;52.136;5.424;2023-03-14T04:49:09;98948.53;;;9.55;100.00
77662;BME280;67292;52.136;5.424;2023-03-14T04:51:36;98948.63;;;9.53;100.00
77662;BME280;67292;52.136;5.424;2023-03-14T04:54:02;98937.06;;;9.54;100.00
77662;BME280;67292;52.136;5.424;2023-03-14T04:56:29;98945.03;;;9.54;100.00
77662;BME280;67292;52.136;5.424;2023-03-14T04:58:55;98940.56;;;9.55;100.00
77662;BME280;67292;52.136;5.424;2023-03-14T05:01:22;98933.47;;;9.55;100.00
77662;BME280;67292;52.136;5.424;2023-03-14T05:03:49;98942.00;;;9.60;100.00
77662;BME280;67292;52.136;5.424;2023-03-14T05:06:15;98941.25;;;9.58;100.00
77662;BME280;67292;52.136;5.424;2023-03-14T05:08:42;98941.16;;;9.60;100.00
77662;BME280;67292;52.136;5.424;2023-03-14T05:11:10;98942.94;;;9.59;100.00
77662;BME280;67292;52.136;5.424;2023-03-14T05:13:36;98941.25;;;9.58;100.00
77662;BME280;67292;52.136;5.424;2023-03-14T05:16:07;98944.66;;;9.60;100.00
77662;BME280;67292;52.136;5.424;2023-03-14T05:18:34;98939.53;;;9.57;100.00
77662;BME280;67292;52.136;5.424;2023-03-14T05:21:02;98944.94;;;9.56;100.00
77662;BME280;67292;52.136;5.424;2023-03-14T05:23:30;98933.53;;;9.53;100.00
77662;BME280;67292;52.136;5.424;2023-03-14T05:25:56;98921.34;;;9.51;100.00
77662;BME280;67292;52.136;5.424;2023-03-14T05:28:23;98927.69;;;9.48;100.00
77662;BME280;67292;52.136;5.424;2023-03-14T05:30:49;98921.78;;;9.43;100.00
77662;BME280;67292;52.136;5.424;2023-03-14T05:33:16;98930.81;;;9.41;100.00
77662;BME280;67292;52.136;5.424;2023-03-14T05:35:43;98927.38;;;9.39;100.00
77662;BME280;67292;52.136;5.424;2023-03-14T05:38:09;98931.84;;;9.38;100.00
77662;BME280;67292;52.136;5.424;2023-03-14T05:40:36;98932.78;;;9.37;100.00
77662;BME280;67292;52.136;5.424;2023-03-14T05:43:03;98930.31;;;9.34;100.00
77662;BME280;67292;52.136;5.424;2023-03-14T05:45:29;98926.78;;;9.34;100.00
77662;BME280;67292;52.136;5.424;2023-03-14T05:47:56;98925.06;;;9.33;100.00
77662;BME280;67292;52.136;5.424;2023-03-14T05:50:23;98926.09;;;9.30;100.00
77662;BME280;67292;52.136;5.424;2023-03-14T05:52:49;98923.44;;;9.30;100.00
77662;BME280;67292;52.136;5.424;2023-03-14T05:55:16;98926.09;;;9.30;100.00
77662;BME280;67292;52.136;5.424;2023-03-14T05:57:42;98929.81;;;9.28;100.00
77662;BME280;67292;52.136;5.424;2023-03-14T06:00:09;98913.03;;;9.27;100.00
77662;BME280;67292;52.136;5.424;2023-03-14T06:02:36;98917.41;;;9.28;100.00
77662;BME280;67292;52.136;5.424;2023-03-14T06:05:03;98921.00;;;9.27;100.00
77662;BME280;67292;52.136;5.424;2023-03-14T06:07:29;98922.03;;;9.25;100.00
77662;BME280;67292;52.136;5.424;2023-03-14T06:09:56;98921.94;;;9.26;100.00
77662;BME280;67292;52.136;5.424;2023-03-14T06:12:22;98917.66;;;9.24;100.00
77662;BME280;67292;52.136;5.424;2023-03-14T06:14:49;98910.56;;;9.24;100.00
77662;BME280;67292;52.136;5.424;2023-03-14T06:17:16;98923.91;;;9.23;100.00
77662;BME280;67292;52.136;5.424;2023-03-14T06:19:42;98925.63;;;9.24;100.00
77662;BME280;67292;52.136;5.424;2023-03-14T06:22:09;98925.63;;;9.24;100.00
77662;BME280;67292;52.136;5.424;2023-03-14T06:24:35;98923.91;;;9.23;100.00
77662;BME280;67292;52.136;5.424;2023-03-14T06:27:02;98923.75;;;9.26;100.00
77662;BME280;67292;52.136;5.424;2023-03-14T06:29:29;98933.50;;;9.25;100.00
77662;BME280;67292;52.136;5.424;2023-03-14T06:31:56;98947.53;;;9.27;100.00
77662;BME280;67292;52.136;5.424;2023-03-14T06:34:22;98955.59;;;9.26;100.00
77662;BME280;67292;52.136;5.424;2023-03-14T06:36:49;98965.25;;;9.27;100.00
77662;BME280;67292;52.136;5.424;2023-03-14T06:39:16;98990.94;;;9.26;100.00
77662;BME280;67292;52.136;5.424;2023-03-14T06:41:42;98993.50;;;9.28;100.00
77662;BME280;67292;52.136;5.424;2023-03-14T06:44:09;98997.09;;;9.27;100.00
77662;BME280;67292;52.136;5.424;2023-03-14T06:46:35;99019.19;;;9.27;100.00
77662;BME280;67292;52.136;5.424;2023-03-14T06:49:02;99027.25;;;9.26;100.00
77662;BME280;67292;52.136;5.424;2023-03-14T06:51:29;99036.59;;;9.17;100.00
77662;BME280;67292;52.136;5.424;2023-03-14T06:53:55;99048.59;;;9.08;100.00
77662;BME280;67292;52.136;5.424;2023-03-14T06:56:22;99061.41;;;9.00;100.00
77662;BME280;67292;52.136;5.424;2023-03-14T06:58:48;99064.50;;;8.93;100.00
77662;BME280;67292;52.136;5.424;2023-03-14T07:01:25;99075.28;;;8.90;100.00
77662;BME280;67292;52.136;5.424;2023-03-14T07:03:53;99082.66;;;8.85;100.00
77662;BME280;67292;52.136;5.424;2023-03-14T07:06:19;99090.06;;;8.78;100.00
77662;BME280;67292;52.136;5.424;2023-03-14T07:08:46;99089.41;;;8.74;100.00
77662;BME280;67292;52.136;5.424;2023-03-14T07:11:12;99102.91;;;8.70;100.00
77662;BME280;67292;52.136;5.424;2023-03-14T07:13:39;99103.06;;;8.67;100.00
77662;BME280;67292;52.136;5.424;2023-03-14T07:16:07;99115.56;;;8.65;100.00
77662;BME280;67292;52.136;5.424;2023-03-14T07:18:34;99114.81;;;8.63;100.00
77662;BME280;67292;52.136;5.424;2023-03-14T07:21:00;99130.88;;;8.60;100.00
77662;BME280;67292;52.136;5.424;2023-03-14T07:23:27;99133.59;;;8.58;100.00
77662;BME280;67292;52.136;5.424;2023-03-14T07:25:53;99142.66;;;8.54;100.00
77662;BME280;67292;52.136;5.424;2023-03-14T07:28:21;99158.81;;;8.50;100.00
77662;BME280;67292;52.136;5.424;2023-03-14T07:30:49;99163.41;;;8.46;100.00
77662;BME280;67292;52.136;5.424;2023-03-14T07:33:16;99183.75;;;8.46;100.00
77662;BME280;67292;52.136;5.424;2023-03-14T07:35:42;99198.03;;;8.43;100.00
77662;BME280;67292;52.136;5.424;2023-03-14T07:38:09;99203.50;;;8.40;100.00
77662;BME280;67292;52.136;5.424;2023-03-14T07:40:37;99216.03;;;8.36;100.00
77662;BME280;67292;52.136;5.424;2023-03-14T07:43:03;99224.22;;;8.32;100.00
77662;BME280;67292;52.136;5.424;2023-03-14T07:45:30;99230.50;;;8.29;100.00
77662;BME280;67292;52.136;5.424;2023-03-14T07:47:57;99248.41;;;8.24;100.00
77662;BME280;67292;52.136;5.424;2023-03-14T07:50:25;99264.47;;;8.21;100.00
77662;BME280;67292;52.136;5.424;2023-03-14T07:52:53;99267.22;;;8.20;100.00
77662;BME280;67292;52.136;5.424;2023-03-14T07:55:20;99274.28;;;8.19;100.00
77662;BME280;67292;52.136;5.424;2023-03-14T07:57:47;99283.09;;;8.20;100.00
77662;BME280;67292;52.136;5.424;2023-03-14T08:00:13;99291.91;;;8.20;100.00
77662;BME280;67292;52.136;5.424;2023-03-14T08:02:41;99325.50;;;8.20;100.00
77662;BME280;67292;52.136;5.424;2023-03-14T08:05:08;99329.81;;;8.03;100.00
77662;BME280;67292;52.136;5.424;2023-03-14T08:07:36;99354.09;;;7.94;100.00
77662;BME280;67292;52.136;5.424;2023-03-14T08:10:03;99364.31;;;7.83;100.00
77662;BME280;67292;52.136;5.424;2023-03-14T08:12:30;99386.00;;;7.73;100.00
77662;BME280;67292;52.136;5.424;2023-03-14T08:14:56;99383.84;;;7.62;100.00
77662;BME280;67292;52.136;5.424;2023-03-14T08:17:23;99398.31;;;7.55;100.00
77662;BME280;67292;52.136;5.424;2023-03-14T08:19:51;99423.31;;;7.48;100.00
77662;BME280;67292;52.136;5.424;2023-03-14T08:22:17;99431.72;;;7.37;100.00
77662;BME280;67292;52.136;5.424;2023-03-14T08:24:45;99431.19;;;7.29;100.00
77662;BME280;67292;52.136;5.424;2023-03-14T08:27:12;99444.94;;;7.17;100.00
77662;BME280;67292;52.136;5.424;2023-03-14T08:29:40;99461.16;;;7.09;100.00
77662;BME280;67292;52.136;5.424;2023-03-14T08:32:08;99471.84;;;7.06;100.00
77662;BME280;67292;52.136;5.424;2023-03-14T08:34:35;99478.94;;;7.06;100.00
77662;BME280;67292;52.136;5.424;2023-03-14T08:37:02;99495.88;;;7.02;100.00
77662;BME280;67292;52.136;5.424;2023-03-14T08:39:36;99499.66;;;6.94;100.00
77662;BME280;67292;52.136;5.424;2023-03-14T08:42:03;99509.31;;;6.95;100.00
77662;BME280;67292;52.136;5.424;2023-03-14T08:44:30;99518.19;;;6.94;100.00
77662;BME280;67292;52.136;5.424;2023-03-14T08:46:57;99522.38;;;7.00;100.00
77662;BME280;67292;52.136;5.424;2023-03-14T08:49:23;99543.38;;;7.03;100.00
77662;BME280;67292;52.136;5.424;2023-03-14T08:51:50;99556.69;;;7.02;100.00
77662;BME280;67292;52.136;5.424;2023-03-14T08:54:17;99559.19;;;7.05;100.00
77662;BME280;67292;52.136;5.424;2023-03-14T08:56:43;99563.81;;;7.00;100.00
77662;BME280;67292;52.136;5.424;2023-03-14T08:59:10;99595.72;;;6.95;100.00
77662;BME280;67292;52.136;5.424;2023-03-14T09:01:37;99592.25;;;6.93;100.00
77662;BME280;67292;52.136;5.424;2023-03-14T09:04:04;99603.66;;;6.95;100.00
77662;BME280;67292;52.136;5.424;2023-03-14T09:06:32;99615.78;;;7.01;100.00
77662;BME280;67292;52.136;5.424;2023-03-14T09:08:59;99621.78;;;7.04;100.00
77662;BME280;67292;52.136;5.424;2023-03-14T09:11:26;99643.59;;;7.11;100.00
77662;BME280;67292;52.136;5.424;2023-03-14T09:13:53;99641.59;;;7.16;100.00
77662;BME280;67292;52.136;5.424;2023-03-14T09:16:19;99668.06;;;7.16;100.00
77662;BME280;67292;52.136;5.424;2023-03-14T09:18:48;99672.44;;;7.17;100.00
77662;BME280;67292;52.136;5.424;2023-03-14T09:21:15;99670.84;;;7.13;100.00
77662;BME280;67292;52.136;5.424;2023-03-14T09:23:42;99678.88;;;7.10;100.00
77662;BME280;67292;52.136;5.424;2023-03-14T09:26:10;99695.78;;;7.06;100.00
77662;BME280;67292;52.136;5.424;2023-03-14T09:28:37;99707.41;;;7.02;100.00
77662;BME280;67292;52.136;5.424;2023-03-14T09:31:08;99707.59;;;6.97;100.00
77662;BME280;67292;52.136;5.424;2023-03-14T09:33:35;99718.97;;;6.99;100.00
77662;BME280;67292;52.136;5.424;2023-03-14T09:36:03;99724.25;;;6.99;100.00
77662;BME280;67292;52.136;5.424;2023-03-14T09:38:31;99731.31;;;6.99;100.00
77662;BME280;67292;52.136;5.424;2023-03-14T09:41:01;99736.16;;;7.11;100.00
77662;BME280;67292;52.136;5.424;2023-03-14T09:43:31;99754.69;;;7.11;100.00
77662;BME280;67292;52.136;5.424;2023-03-14T09:46:01;99767.78;;;7.14;99.81
77662;BME280;67292;52.136;5.424;2023-03-14T09:48:31;99773.00;;;7.15;100.00
77662;BME280;67292;52.136;5.424;2023-03-14T09:51:07;99779.84;;;7.21;100.00
77662;BME280;67292;52.136;5.424;2023-03-14T09:53:44;99786.97;;;7.19;98.52
77662;BME280;67292;52.136;5.424;2023-03-14T09:56:19;99792.22;;;7.20;98.81
77662;BME280;67292;52.136;5.424;2023-03-14T09:58:55;99809.81;;;7.21;98.99
77662;BME280;67292;52.136;5.424;2023-03-14T10:01:26;99812.53;;;7.20;98.22
77662;BME280;67292;52.136;5.424;2023-03-14T10:04:01;99823.72;;;7.26;99.06
77662;BME280;67292;52.136;5.424;2023-03-14T10:06:31;99824.44;;;7.31;99.44
77662;BME280;67292;52.136;5.424;2023-03-14T10:08:58;99839.34;;;7.34;98.37
77662;BME280;67292;52.136;5.424;2023-03-14T10:11:25;99854.97;;;7.40;99.39
77662;BME280;67292;52.136;5.424;2023-03-14T10:14:05;99861.03;;;7.44;98.41
77662;BME280;67292;52.136;5.424;2023-03-14T10:16:40;99886.63;;;7.43;98.46
77662;BME280;67292;52.136;5.424;2023-03-14T10:19:14;99889.38;;;7.40;98.74
77662;BME280;67292;52.136;5.424;2023-03-14T10:21:44;99906.06;;;7.42;98.81
77662;BME280;67292;52.136;5.424;2023-03-14T10:24:27;99913.44;;;7.34;98.66
77662;BME280;67292;52.136;5.424;2023-03-14T10:26:58;99928.25;;;7.38;99.10
77662;BME280;67292;52.136;5.424;2023-03-14T10:29:24;99931.66;;;7.42;99.37
77662;BME280;67292;52.136;5.424;2023-03-14T10:31:58;99935.94;;;7.46;99.74
77662;BME280;67292;52.136;5.424;2023-03-14T10:34:38;99946.28;;;7.52;98.72
77662;BME280;67292;52.136;5.424;2023-03-14T10:37:25;99961.03;;;7.59;97.99
77662;BME280;67292;52.136;5.424;2023-03-14T10:40:01;99968.84;;;7.62;98.18
77662;BME280;67292;52.136;5.424;2023-03-14T10:42:38;99980.22;;;7.65;97.95
77662;BME280;67292;52.136;5.424;2023-03-14T10:45:28;99997.94;;;7.63;97.61
77662;BME280;67292;52.136;5.424;2023-03-14T10:47:59;100006.78;;;7.62;98.03
77662;BME280;67292;52.136;5.424;2023-03-14T10:50:29;100027.88;;;7.65;98.36
77662;BME280;67292;52.136;5.424;2023-03-14T10:52:57;100045.59;;;7.63;96.03
77662;BME280;67292;52.136;5.424;2023-03-14T10:55:42;100062.72;;;7.53;95.82
77662;BME280;67292;52.136;5.424;2023-03-14T10:58:30;100060.25;;;7.47;95.88
77662;BME280;67292;52.136;5.424;2023-03-14T11:01:23;100069.28;;;7.42;97.29
77662;BME280;67292;52.136;5.424;2023-03-14T11:04:12;100086.06;;;7.41;97.19
77662;BME280;67292;52.136;5.424;2023-03-14T11:07:02;100094.88;;;7.41;97.17
77662;BME280;67292;52.136;5.424;2023-03-14T11:10:39;100103.22;;;7.29;94.84
77662;BME280;67292;52.136;5.424;2023-03-14T11:13:07;100112.16;;;7.25;93.30
77662;BME280;67292;52.136;5.424;2023-03-14T11:16:02;100116.69;;;7.21;94.98
77662;BME280;67292;52.136;5.424;2023-03-14T11:26:58;100146.25;;;8.61;94.96
77662;BME280;67292;52.136;5.424;2023-03-14T11:29:40;100163.38;;;8.99;90.68
77662;BME280;67292;52.136;5.424;2023-03-14T11:32:36;100165.00;;;9.25;92.49
77662;BME280;67292;52.136;5.424;2023-03-14T11:35:24;100169.19;;;9.31;89.66
77662;BME280;67292;52.136;5.424;2023-03-14T11:38:24;100183.22;;;9.34;89.75
77662;BME280;67292;52.136;5.424;2023-03-14T11:40:57;100194.88;;;9.52;91.92
77662;BME280;67292;52.136;5.424;2023-03-14T11:43:35;100196.69;;;9.73;90.85
77662;BME280;67292;52.136;5.424;2023-03-14T11:46:27;100206.69;;;9.88;88.09
77662;BME280;67292;52.136;5.424;2023-03-14T11:48:59;100212.47;;;9.98;88.04
77662;BME280;67292;52.136;5.424;2023-03-14T11:51:39;100217.41;;;9.85;86.68
77662;BME280;67292;52.136;5.424;2023-03-14T11:54:18;100216.06;;;9.75;87.41
77662;BME280;67292;52.136;5.424;2023-03-14T11:57:03;100225.78;;;9.76;85.96
77662;BME280;67292;52.136;5.424;2023-03-14T11:59:47;100231.91;;;9.78;87.07
77662;BME280;67292;52.136;5.424;2023-03-14T12:02:42;100239.75;;;9.81;86.01
77662;BME280;67292;52.136;5.424;2023-03-14T12:10:42;100265.06;;;9.68;84.91
77662;BME280;67292;52.136;5.424;2023-03-14T12:13:13;100282.84;;;9.66;85.65
77662;BME280;67292;52.136;5.424;2023-03-14T12:15:56;100283.16;;;9.59;80.75
77662;BME280;67292;52.136;5.424;2023-03-14T12:20:57;100286.34;;;9.45;82.81
77662;BME280;67292;52.136;5.424;2023-03-14T12:23:27;100295.19;;;9.45;80.19
77662;BME280;67292;52.136;5.424;2023-03-14T12:26:19;100299.63;;;9.45;82.31
77662;BME280;67292;52.136;5.424;2023-03-14T12:29:14;100301.63;;;9.40;80.59
77662;BME280;67292;52.136;5.424;2023-03-14T12:31:43;100321.16;;;9.37;81.73
77662;BME280;67292;52.136;5.424;2023-03-14T12:42:05;100329.66;;;9.24;82.97
77662;BME280;67292;52.136;5.424;2023-03-14T12:49:47;100341.31;;;9.43;83.68
77662;BME280;67292;52.136;5.424;2023-03-14T12:53:37;100337.56;;;9.48;82.53
77662;BME280;67292;52.136;5.424;2023-03-14T12:55:45;100351.81;;;9.46;84.23
77662;BME280;67292;52.136;5.424;2023-03-14T13:00:54;100367.53;;;9.29;77.94
77662;BME280;67292;52.136;5.424;2023-03-14T13:03:26;100376.91;;;9.14;77.51
77662;BME280;67292;52.136;5.424;2023-03-14T13:06:05;100382.63;;;9.02;77.33
77662;BME280;67292;52.136;5.424;2023-03-14T13:08:50;100385.56;;;8.94;79.36
77662;BME280;67292;52.136;5.424;2023-03-14T13:11:23;100391.75;;;8.95;78.90
77662;BME280;67292;52.136;5.424;2023-03-14T13:13:57;100409.50;;;8.93;75.50
77662;BME280;67292;52.136;5.424;2023-03-14T13:16:25;100406.78;;;8.94;79.04
77662;BME280;67292;52.136;5.424;2023-03-14T13:19:04;100413.88;;;8.94;79.86
77662;BME280;67292;52.136;5.424;2023-03-14T13:21:37;100419.09;;;8.97;79.68
77662;BME280;67292;52.136;5.424;2023-03-14T13:24:07;100423.41;;;8.99;80.56
77662;BME280;67292;52.136;5.424;2023-03-14T13:26:45;100425.84;;;9.05;78.72
77662;BME280;67292;52.136;5.424;2023-03-14T13:29:19;100440.88;;;9.06;80.25
77662;BME280;67292;52.136;5.424;2023-03-14T13:31:49;100435.56;;;9.06;78.77
77662;BME280;67292;52.136;5.424;2023-03-14T13:34:17;100458.75;;;9.00;77.21
77662;BME280;67292;52.136;5.424;2023-03-14T13:36:44;100452.72;;;8.96;77.59
77662;BME280;67292;52.136;5.424;2023-03-14T13:39:19;100463.09;;;9.02;79.96
77662;BME280;67292;52.136;5.424;2023-03-14T13:41:48;100465.13;;;8.96;77.64
77662;BME280;67292;52.136;5.424;2023-03-14T13:44:18;100467.97;;;8.90;76.57
77662;BME280;67292;52.136;5.424;2023-03-14T13:46:48;100474.09;;;8.92;73.07
77662;BME280;67292;52.136;5.424;2023-03-14T13:49:25;100498.19;;;8.86;77.74
77662;BME280;67292;52.136;5.424;2023-03-14T13:51:53;100493.25;;;8.73;77.53